Time;durP1;ratioP1;P1;durP2;ratioP2;P2;SDS_P1;SDS_P2;PMS_P1;PMS_P2;Temp;Humidity;BMP_temperature;BMP_pressure;BME280_temperature;BME280_humidity;BME280_pressure;Samples;Min_cycle;Max_cycle;Signal;HPM_P1;HPM_P2
2021/12/30 00:00:57;;;;;;;2.20;2.00;;;22.30;46.40;;;;;;5126408;27;48793;-19
2021/12/30 00:03:24;;;;;;;2.55;2.35;;;22.40;46.40;;;;;;5126252;27;46739;-18
2021/12/30 00:05:52;;;;;;;1.98;1.88;;;22.40;46.40;;;;;;5129979;27;47352;-19
2021/12/30 00:08:19;;;;;;;2.03;1.90;;;22.40;46.40;;;;;;5130712;27;46884;-18
2021/12/30 00:10:45;;;;;;;2.00;1.85;;;22.40;46.40;;;;;;5129654;27;49115;-18
2021/12/30 00:13:12;;;;;;;2.25;1.98;;;22.40;46.40;;;;;;5130262;27;47225;-19
2021/12/30 00:15:40;;;;;;;2.28;2.08;;;22.40;46.40;;;;;;5129981;27;47015;-19
2021/12/30 00:18:08;;;;;;;1.75;1.65;;;22.40;46.40;;;;;;5129995;27;47165;-18
2021/12/30 00:20:35;;;;;;;1.95;1.80;;;22.30;46.30;;;;;;5129725;27;48732;-18
2021/12/30 00:23:04;;;;;;;1.80;1.70;;;22.40;46.40;;;;;;5130128;27;46956;-18
2021/12/30 00:25:37;;;;;;;2.30;2.10;;;22.40;46.40;;;;;;5129941;27;46962;-18
2021/12/30 00:28:05;;;;;;;1.85;1.73;;;22.40;46.40;;;;;;5130241;27;47187;-18
2021/12/30 00:30:32;;;;;;;1.70;1.60;;;22.40;46.40;;;;;;5129859;27;48848;-18
2021/12/30 00:33:00;;;;;;;2.10;1.90;;;22.40;46.30;;;;;;5129609;27;46923;-18
2021/12/30 00:35:26;;;;;;;1.67;1.58;;;22.40;46.30;;;;;;5129734;27;46924;-18
2021/12/30 00:37:53;;;;;;;2.10;1.90;;;22.40;46.30;;;;;;5129983;27;46837;-17
2021/12/30 00:40:20;;;;;;;1.67;1.58;;;22.40;46.30;;;;;;5129280;27;48093;-19
2021/12/30 00:42:47;;;;;;;1.80;1.70;;;22.40;46.30;;;;;;5129653;27;46959;-19
2021/12/30 00:45:14;;;;;;;1.83;1.73;;;22.40;46.20;;;;;;5129271;27;46881;-18
2021/12/30 00:47:40;;;;;;;1.67;1.58;;;22.40;46.30;;;;;;5129956;27;46930;-18
2021/12/30 00:50:09;;;;;;;2.15;1.60;;;22.40;46.20;;;;;;5129384;27;49025;-18
2021/12/30 00:52:35;;;;;;;1.90;1.80;;;22.40;46.30;;;;;;5129232;27;46865;-18
2021/12/30 00:55:02;;;;;;;1.70;1.60;;;22.40;46.20;;;;;;5129598;27;46956;-18
2021/12/30 00:57:29;;;;;;;1.60;1.50;;;22.40;46.20;;;;;;5129544;27;46886;-18
2021/12/30 00:59:56;;;;;;;1.60;1.50;;;22.40;46.20;;;;;;5129112;27;48875;-18
2021/12/30 01:02:22;;;;;;;1.90;1.70;;;22.40;46.20;;;;;;5129480;27;46952;-19
2021/12/30 01:04:49;;;;;;;1.70;1.60;;;22.40;46.10;;;;;;5129213;27;46889;-18
2021/12/30 01:07:17;;;;;;;1.25;1.15;;;22.40;46.20;;;;;;5129186;27;47236;-18
2021/12/30 01:09:44;;;;;;;1.67;1.58;;;22.40;46.20;;;;;;5128681;27;47063;-18
2021/12/30 01:12:11;;;;;;;1.40;1.30;;;22.40;46.20;;;;;;5128798;27;47167;-19
2021/12/30 01:14:38;;;;;;;1.48;1.38;;;22.40;46.10;;;;;;5129093;27;46895;-17
2021/12/30 01:17:16;;;;;;;1.50;1.40;;;22.40;46.10;;;;;;5128626;27;46908;-18
2021/12/30 01:19:45;;;;;;;1.40;1.30;;;22.50;46.20;;;;;;5128750;27;49056;-18
2021/12/30 01:22:14;;;;;;;1.40;1.30;;;22.40;46.20;;;;;;5129057;27;46967;-18
2021/12/30 01:24:42;;;;;;;1.70;1.60;;;22.40;46.10;;;;;;5128893;27;46909;-19
2021/12/30 01:27:09;;;;;;;1.75;1.27;;;22.40;46.70;;;;;;5129150;27;47203;-18
2021/12/30 01:29:35;;;;;;;1.70;1.60;;;22.40;46.20;;;;;;5128766;27;46905;-18
2021/12/30 01:32:02;;;;;;;1.40;1.30;;;22.40;46.10;;;;;;5128569;27;47068;-19
2021/12/30 01:34:29;;;;;;;1.50;1.40;;;22.40;46.10;;;;;;5128934;27;47019;-18
2021/12/30 01:37:00;;;;;;;1.80;1.70;;;22.40;46.10;;;;;;5128846;27;46893;-19
2021/12/30 01:39:27;;;;;;;1.30;1.20;;;22.40;46.20;;;;;;5128698;27;48729;-18
2021/12/30 01:41:55;;;;;;;1.30;1.20;;;22.40;46.10;;;;;;5128649;27;46908;-17
2021/12/30 01:44:22;;;;;;;1.30;1.20;;;22.40;46.00;;;;;;5128251;27;46780;-18
2021/12/30 01:46:48;;;;;;;1.52;1.42;;;22.40;46.10;;;;;;5128948;27;47225;-18
2021/12/30 01:49:15;;;;;;;1.80;1.17;;;22.40;46.20;;;;;;5128308;27;48868;-18
2021/12/30 01:51:43;;;;;;;1.17;1.08;;;22.40;46.10;;;;;;5128622;27;46979;-18
2021/12/30 01:54:09;;;;;;;1.30;1.20;;;22.40;46.10;;;;;;5128400;27;47012;-18
2021/12/30 01:56:36;;;;;;;1.20;1.10;;;22.50;46.10;;;;;;5128666;27;47297;-18
2021/12/30 01:59:04;;;;;;;1.30;1.20;;;22.40;46.10;;;;;;5128272;27;46750;-18
2021/12/30 02:01:31;;;;;;;1.25;1.15;;;22.40;46.00;;;;;;5128198;27;46996;-19
2021/12/30 02:03:58;;;;;;;1.02;1.02;;;22.50;46.10;;;;;;5128442;27;46852;-18
2021/12/30 02:06:24;;;;;;;0.90;0.90;;;22.40;46.00;;;;;;5128281;27;47284;-19
2021/12/30 02:08:52;;;;;;;1.38;1.27;;;22.40;46.00;;;;;;5128234;27;46912;-18
2021/12/30 02:11:18;;;;;;;0.80;0.80;;;22.50;46.10;;;;;;5128339;27;46972;-18
2021/12/30 02:13:46;;;;;;;1.08;1.08;;;22.50;46.10;;;;;;5128079;27;46929;-18
2021/12/30 02:16:15;;;;;;;0.90;0.90;;;22.50;46.00;;;;;;5128530;27;47007;-18
2021/12/30 02:18:42;;;;;;;1.15;1.10;;;22.50;46.10;;;;;;5127767;27;49045;-19
2021/12/30 02:21:10;;;;;;;1.15;1.05;;;22.50;46.10;;;;;;5127990;27;47427;-18
2021/12/30 02:23:37;;;;;;;1.20;1.10;;;22.50;46.00;;;;;;5128141;27;46949;-18
2021/12/30 02:26:05;;;;;;;1.20;1.10;;;22.50;46.00;;;;;;5128313;27;46860;-18
2021/12/30 02:28:34;;;;;;;0.90;0.90;;;22.50;46.10;;;;;;5126245;27;49029;-19
2021/12/30 02:31:06;;;;;;;0.98;0.98;;;22.50;46.10;;;;;;5127948;27;47329;-18
2021/12/30 02:33:32;;;;;;;1.10;1.00;;;22.50;46.00;;;;;;5127930;27;46842;-19
2021/12/30 02:35:59;;;;;;;1.20;1.10;;;22.50;46.00;;;;;;5128108;27;46813;-18
2021/12/30 02:38:27;;;;;;;1.20;1.10;;;22.50;46.00;;;;;;5127532;27;49037;-18
2021/12/30 02:40:56;;;;;;;1.08;1.05;;;22.50;46.10;;;;;;5127748;27;46915;-18
2021/12/30 02:43:25;;;;;;;1.10;1.00;;;22.50;46.00;;;;;;5127751;27;46980;-18
2021/12/30 02:45:51;;;;;;;0.93;0.93;;;22.50;46.00;;;;;;5127546;27;48018;-18
2021/12/30 02:48:20;;;;;;;0.80;0.80;;;22.50;46.00;;;;;;5127316;27;47829;-18
2021/12/30 02:50:47;;;;;;;0.88;0.88;;;22.50;46.00;;;;;;5127291;27;47241;-18
2021/12/30 02:53:14;;;;;;;0.90;0.90;;;22.50;46.00;;;;;;5127528;27;46879;-18
2021/12/30 02:55:42;;;;;;;0.70;0.70;;;22.50;46.00;;;;;;5127556;27;47102;-18
2021/12/30 02:58:09;;;;;;;1.00;1.00;;;22.50;46.00;;;;;;5127165;27;47973;-19
2021/12/30 03:00:36;;;;;;;0.80;0.80;;;22.50;46.00;;;;;;5126976;27;46940;-18
2021/12/30 03:03:03;;;;;;;0.80;0.80;;;22.50;46.00;;;;;;5127545;27;46980;-19
2021/12/30 03:05:29;;;;;;;1.00;1.00;;;22.50;45.90;;;;;;5127122;27;46803;-18
2021/12/30 03:07:56;;;;;;;0.75;0.75;;;22.50;45.90;;;;;;5127416;27;49074;-18
2021/12/30 03:10:24;;;;;;;0.80;0.80;;;22.50;46.00;;;;;;5126815;27;47080;-18
2021/12/30 03:12:55;;;;;;;1.00;0.93;;;22.60;46.00;;;;;;5127476;27;46971;-19
2021/12/30 03:15:22;;;;;;;0.80;0.80;;;22.50;45.90;;;;;;5127433;27;46848;-18
2021/12/30 03:17:49;;;;;;;0.93;0.93;;;22.50;45.90;;;;;;5127157;27;46889;-18
2021/12/30 03:20:16;;;;;;;0.85;0.85;;;22.50;46.00;;;;;;5126891;27;47267;-18
2021/12/30 03:22:43;;;;;;;0.80;0.80;;;22.50;46.00;;;;;;5127113;27;46940;-18
2021/12/30 03:25:13;;;;;;;0.80;0.77;;;22.50;45.90;;;;;;5126915;27;46829;-18
2021/12/30 03:27:40;;;;;;;0.85;0.85;;;22.50;46.50;;;;;;5127091;27;46960;-18
2021/12/30 03:30:10;;;;;;;0.70;0.70;;;22.50;46.00;;;;;;5126961;27;47240;-18
2021/12/30 03:32:37;;;;;;;0.60;0.60;;;22.50;45.90;;;;;;5126767;27;46785;-18
2021/12/30 03:35:05;;;;;;;0.70;0.70;;;22.50;45.90;;;;;;5127073;27;47299;-19
2021/12/30 03:37:31;;;;;;;0.77;0.77;;;22.50;45.90;;;;;;5126689;27;48106;-18
2021/12/30 03:39:58;;;;;;;0.82;0.70;;;22.50;45.90;;;;;;5126314;27;47225;-18
2021/12/30 03:42:25;;;;;;;0.60;0.60;;;22.60;46.00;;;;;;5126928;27;46796;-19
2021/12/30 03:44:56;;;;;;;0.70;0.70;;;22.60;45.90;;;;;;5126211;27;46906;-19
2021/12/30 03:47:24;;;;;;;0.70;0.70;;;22.60;45.90;;;;;;5126722;27;47819;-18
2021/12/30 03:49:52;;;;;;;0.70;0.70;;;22.60;46.00;;;;;;5126270;27;46821;-19
2021/12/30 03:52:24;;;;;;;0.57;0.57;;;22.60;45.90;;;;;;5126583;27;46789;-19
2021/12/30 03:54:51;;;;;;;0.60;0.60;;;22.60;45.90;;;;;;5126710;27;46795;-18
2021/12/30 03:57:18;;;;;;;0.70;0.70;;;22.60;46.60;;;;;;5126383;27;49079;-19
2021/12/30 03:59:44;;;;;;;0.60;0.60;;;22.60;46.00;;;;;;5126559;27;46986;-18
2021/12/30 04:02:11;;;;;;;0.60;0.60;;;22.60;46.00;;;;;;5126387;27;46953;-18
2021/12/30 04:04:39;;;;;;;0.50;0.50;;;22.60;46.00;;;;;;5126690;27;46918;-18
2021/12/30 04:07:06;;;;;;;0.50;0.50;;;22.60;45.90;;;;;;5126445;27;49113;-18
2021/12/30 04:09:33;;;;;;;0.60;0.60;;;22.60;46.00;;;;;;5126350;27;46939;-18
2021/12/30 04:11:59;;;;;;;0.50;0.50;;;22.60;45.90;;;;;;5126510;27;46953;-19
2021/12/30 04:14:27;;;;;;;0.65;0.60;;;22.60;45.90;;;;;;5126128;27;47214;-18
2021/12/30 04:16:54;;;;;;;0.60;0.60;;;22.60;45.90;;;;;;5126201;27;48129;-19
2021/12/30 04:19:21;;;;;;;0.50;0.50;;;22.60;45.90;;;;;;5125812;27;47077;-18
2021/12/30 04:21:53;;;;;;;0.50;0.50;;;22.60;45.90;;;;;;5126149;27;46914;-18
2021/12/30 04:24:20;;;;;;;0.50;0.50;;;22.60;45.90;;;;;;5126135;27;46911;-18
2021/12/30 04:26:46;;;;;;;0.50;0.50;;;22.60;45.90;;;;;;5125955;27;47048;-19
2021/12/30 04:29:13;;;;;;;0.60;0.60;;;22.60;45.90;;;;;;5126190;27;47473;-18
2021/12/30 04:31:40;;;;;;;0.50;0.50;;;22.60;45.90;;;;;;5126007;27;46968;-18
2021/12/30 04:34:06;;;;;;;0.60;0.60;;;22.60;45.90;;;;;;5126123;27;46869;-18
2021/12/30 04:36:33;;;;;;;0.55;0.55;;;22.60;45.90;;;;;;5125881;27;47088;-18
2021/12/30 04:39:01;;;;;;;0.50;0.50;;;22.60;45.90;;;;;;5125940;27;47268;-19
2021/12/30 04:41:28;;;;;;;0.60;0.60;;;22.60;45.90;;;;;;5126104;27;46829;-18
2021/12/30 04:43:54;;;;;;;0.50;0.50;;;22.60;45.90;;;;;;5126104;27;47326;-19
2021/12/30 04:46:21;;;;;;;0.52;0.52;;;22.60;45.90;;;;;;5126036;27;47044;-18
2021/12/30 04:48:49;;;;;;;0.50;0.50;;;22.60;45.90;;;;;;5125898;27;47254;-18
2021/12/30 04:51:16;;;;;;;0.40;0.40;;;22.60;45.90;;;;;;5126854;27;46842;-18
2021/12/30 04:53:43;;;;;;;0.40;0.40;;;22.60;45.90;;;;;;5129345;27;47294;-18
2021/12/30 04:56:11;;;;;;;0.60;0.60;;;22.60;45.90;;;;;;5129392;27;48115;-19
2021/12/30 04:58:38;;;;;;;0.60;0.60;;;22.60;45.90;;;;;;5129215;27;46920;-18
2021/12/30 05:01:04;;;;;;;0.70;0.50;;;22.60;45.90;;;;;;5129470;27;46875;-19
2021/12/30 05:03:31;;;;;;;0.57;0.57;;;22.60;45.90;;;;;;5129381;27;46902;-19
2021/12/30 05:05:58;;;;;;;0.30;0.30;;;22.60;45.80;;;;;;5129003;27;48901;-18
2021/12/30 05:08:25;;;;;;;0.30;0.30;;;22.60;45.90;;;;;;5129038;27;47721;-19
2021/12/30 05:10:52;;;;;;;0.40;0.40;;;22.60;45.90;;;;;;5129015;27;47008;-18
2021/12/30 05:13:20;;;;;;;0.50;0.50;;;22.60;45.90;;;;;;5129363;27;46899;-18
2021/12/30 05:15:47;;;;;;;0.57;0.57;;;22.60;45.80;;;;;;5129085;27;48929;-18
2021/12/30 05:18:15;;;;;;;0.40;0.40;;;22.60;45.90;;;;;;5129143;27;46970;-19
2021/12/30 05:20:41;;;;;;;0.70;0.50;;;22.60;45.90;;;;;;5128677;27;46903;-18
2021/12/30 05:23:08;;;;;;;0.40;0.40;;;22.60;45.90;;;;;;5129018;27;46825;-18
2021/12/30 05:25:35;;;;;;;0.40;0.40;;;22.60;45.80;;;;;;5128797;27;47071;-19
2021/12/30 05:28:02;;;;;;;0.50;0.50;;;22.60;45.90;;;;;;5128898;27;46973;-17
2021/12/30 05:30:30;;;;;;;0.30;0.30;;;22.60;45.90;;;;;;5128982;27;47044;-18
2021/12/30 05:32:57;;;;;;;0.45;0.45;;;22.60;45.90;;;;;;5129201;27;46894;-19
2021/12/30 05:35:24;;;;;;;0.50;0.30;;;22.70;45.90;;;;;;5128584;27;48035;-18
2021/12/30 05:37:51;;;;;;;0.30;0.30;;;22.60;45.90;;;;;;5128737;27;46787;-19
2021/12/30 05:40:19;;;;;;;0.40;0.40;;;22.60;45.90;;;;;;5128936;27;46891;-18
2021/12/30 05:42:45;;;;;;;0.50;0.50;;;22.60;45.80;;;;;;5128718;27;47074;-19
2021/12/30 05:45:14;;;;;;;0.38;0.38;;;22.70;45.90;;;;;;5128132;27;47056;-18
2021/12/30 05:47:42;;;;;;;0.40;0.40;;;22.60;45.80;;;;;;5128287;27;46826;-19
2021/12/30 05:50:10;;;;;;;0.38;0.38;;;22.60;45.80;;;;;;5128329;27;47007;-18
2021/12/30 05:52:37;;;;;;;0.30;0.30;;;22.70;45.90;;;;;;5128978;27;47291;-18
2021/12/30 05:55:04;;;;;;;0.35;0.35;;;22.70;45.90;;;;;;5128393;27;47885;-18
2021/12/30 05:57:30;;;;;;;0.30;0.30;;;22.70;45.90;;;;;;5128394;27;46879;-18
2021/12/30 05:59:57;;;;;;;0.38;0.38;;;22.70;45.90;;;;;;5128557;27;46848;-18
2021/12/30 06:02:24;;;;;;;0.32;0.32;;;22.70;45.90;;;;;;5128344;27;46898;-18
2021/12/30 06:04:52;;;;;;;0.20;0.20;;;22.70;45.90;;;;;;5128071;27;48863;-18
2021/12/30 06:07:18;;;;;;;0.30;0.30;;;22.60;45.90;;;;;;5128300;27;46896;-18
2021/12/30 06:09:46;;;;;;;0.50;0.50;;;22.70;45.90;;;;;;5127905;27;46894;-18
2021/12/30 06:12:12;;;;;;;0.30;0.30;;;22.70;45.90;;;;;;5128122;27;47057;-18
2021/12/30 06:14:39;;;;;;;0.22;0.22;;;22.70;45.90;;;;;;5127928;27;47093;-18
2021/12/30 06:17:06;;;;;;;0.20;0.20;;;22.70;45.90;;;;;;5128207;27;47452;-19
2021/12/30 06:19:33;;;;;;;0.40;0.40;;;22.70;45.90;;;;;;5128008;27;46867;-18
2021/12/30 06:22:01;;;;;;;0.38;0.38;;;22.70;45.90;;;;;;5128484;27;47192;-18
2021/12/30 06:24:27;;;;;;;0.30;0.30;;;22.70;45.80;;;;;;5127691;27;47089;-18
2021/12/30 06:26:54;;;;;;;0.30;0.30;;;22.70;45.90;;;;;;5127872;27;47464;-18
2021/12/30 06:29:21;;;;;;;0.32;0.32;;;22.70;45.90;;;;;;5127577;27;46907;-18
2021/12/30 06:31:47;;;;;;;0.30;0.30;;;22.70;45.90;;;;;;5127649;27;46937;-18
2021/12/30 06:34:14;;;;;;;0.30;0.30;;;22.70;45.90;;;;;;5127252;27;49087;-18
2021/12/30 06:36:41;;;;;;;0.40;0.40;;;22.70;45.90;;;;;;5127008;27;46911;-17
2021/12/30 06:39:09;;;;;;;0.43;0.40;;;22.70;45.90;;;;;;5127829;27;47044;-19
2021/12/30 06:41:35;;;;;;;0.40;0.40;;;22.70;45.80;;;;;;5127912;27;47187;-18
2021/12/30 06:44:02;;;;;;;0.32;0.32;;;22.70;45.90;;;;;;5127387;27;46909;-19
2021/12/30 06:46:29;;;;;;;0.30;0.30;;;22.70;45.90;;;;;;5127685;27;47292;-18
2021/12/30 06:48:55;;;;;;;0.30;0.30;;;22.70;45.80;;;;;;5127387;27;46981;-18
2021/12/30 06:51:24;;;;;;;0.30;0.30;;;22.70;45.80;;;;;;5127111;27;46885;-19
2021/12/30 06:53:51;;;;;;;0.45;0.30;;;22.70;45.80;;;;;;5127327;27;47140;-18
2021/12/30 06:56:19;;;;;;;1.10;0.20;;;22.70;45.80;;;;;;5127534;27;47077;-19
2021/12/30 06:58:46;;;;;;;0.30;0.30;;;22.70;45.80;;;;;;5127259;27;46756;-19
2021/12/30 07:01:13;;;;;;;0.20;0.20;;;22.70;45.80;;;;;;5127246;27;46852;-18
2021/12/30 07:03:39;;;;;;;0.20;0.20;;;22.70;45.80;;;;;;5127343;27;47178;-18
2021/12/30 07:06:07;;;;;;;0.30;0.30;;;22.70;45.80;;;;;;5127431;27;46910;-19
2021/12/30 07:08:34;;;;;;;0.20;0.20;;;22.70;45.90;;;;;;5127527;27;47007;-18
2021/12/30 07:11:00;;;;;;;0.30;0.30;;;22.70;45.80;;;;;;5127417;27;46933;-18
2021/12/30 07:13:29;;;;;;;0.30;0.30;;;22.70;45.80;;;;;;5126443;27;46726;-18
2021/12/30 07:15:55;;;;;;;0.20;0.20;;;22.70;45.90;;;;;;5126843;27;46888;-19
2021/12/30 07:18:22;;;;;;;0.30;0.30;;;22.70;45.90;;;;;;5127227;27;46844;-19
2021/12/30 07:20:49;;;;;;;0.20;0.20;;;22.70;45.80;;;;;;5126916;27;47332;-18
2021/12/30 07:23:16;;;;;;;0.22;0.20;;;22.70;45.80;;;;;;5126870;27;48766;-18
2021/12/30 07:25:42;;;;;;;0.30;0.30;;;22.70;45.80;;;;;;5126734;27;47103;-18
2021/12/30 07:28:09;;;;;;;0.30;0.30;;;22.70;45.90;;;;;;5126880;27;46820;-18
2021/12/30 07:30:37;;;;;;;0.20;0.20;;;22.70;45.80;;;;;;5127321;27;47126;-19
2021/12/30 07:33:06;;;;;;;0.20;0.20;;;22.70;45.80;;;;;;5126828;27;48107;-19
2021/12/30 07:35:33;;;;;;;0.30;0.30;;;22.80;45.90;;;;;;5126849;27;46925;-18
2021/12/30 07:38:00;;;;;;;0.20;0.20;;;22.70;45.90;;;;;;5126700;27;46922;-18
2021/12/30 07:40:26;;;;;;;0.20;0.20;;;22.80;45.90;;;;;;5126578;27;46802;-18
2021/12/30 07:42:53;;;;;;;0.40;0.30;;;22.70;45.90;;;;;;5126512;27;46946;-19
2021/12/30 07:45:20;;;;;;;0.30;0.30;;;22.70;45.90;;;;;;5125911;27;46977;-18
2021/12/30 07:47:49;;;;;;;0.20;0.20;;;22.80;45.90;;;;;;5126592;27;46821;-19
2021/12/30 07:50:15;;;;;;;0.28;0.28;;;22.80;45.90;;;;;;5126295;27;47062;-18
2021/12/30 07:52:42;;;;;;;0.10;0.10;;;22.80;45.90;;;;;;5126638;27;48158;-18
2021/12/30 07:55:10;;;;;;;0.20;0.20;;;22.80;45.90;;;;;;5126364;27;46837;-18
2021/12/30 07:57:37;;;;;;;0.40;0.40;;;22.80;45.90;;;;;;5126658;27;46816;-18
2021/12/30 08:00:05;;;;;;;0.20;0.20;;;22.80;46.00;;;;;;5126420;27;47004;-18
2021/12/30 08:02:31;;;;;;;0.25;0.25;;;22.80;45.90;;;;;;5126689;27;48142;-18
2021/12/30 08:04:59;;;;;;;0.20;0.20;;;22.80;46.00;;;;;;5126328;27;46945;-18
2021/12/30 08:07:26;;;;;;;0.20;0.20;;;22.80;46.00;;;;;;5126233;27;46900;-17
2021/12/30 08:09:54;;;;;;;0.20;0.20;;;22.80;46.00;;;;;;5126596;27;47338;-18
2021/12/30 08:12:21;;;;;;;0.30;0.30;;;22.80;46.00;;;;;;5126372;27;47976;-18
2021/12/30 08:14:47;;;;;;;0.20;0.20;;;22.80;46.00;;;;;;5126048;27;47254;-18
2021/12/30 08:17:14;;;;;;;0.20;0.20;;;22.80;46.00;;;;;;5125149;27;46988;-18
2021/12/30 08:19:41;;;;;;;0.10;0.10;;;22.80;46.00;;;;;;5124931;27;47018;-18
2021/12/30 08:22:09;;;;;;;0.30;0.30;;;22.80;46.00;;;;;;5126439;27;48026;-18
2021/12/30 08:24:35;;;;;;;0.30;0.30;;;22.80;46.10;;;;;;5126236;27;47080;-18
2021/12/30 08:27:02;;;;;;;0.15;0.15;;;22.80;46.10;;;;;;5129722;27;46938;-18
2021/12/30 08:29:31;;;;;;;0.20;0.20;;;22.80;46.00;;;;;;5130169;27;46898;-18
2021/12/30 08:31:58;;;;;;;0.10;0.10;;;22.80;46.10;;;;;;5129940;27;48144;-18
2021/12/30 08:34:25;;;;;;;0.10;0.10;;;22.80;46.10;;;;;;5129593;27;47701;-18
2021/12/30 08:36:52;;;;;;;0.20;0.20;;;22.80;46.10;;;;;;5130044;27;46871;-18
2021/12/30 08:39:20;;;;;;;0.10;0.10;;;22.80;46.10;;;;;;5129731;27;47316;-18
2021/12/30 08:41:47;;;;;;;0.32;0.15;;;22.80;46.10;;;;;;5129660;27;48174;-18
2021/12/30 08:44:13;;;;;;;0.20;0.20;;;22.80;46.10;;;;;;5128728;27;47464;-17
2021/12/30 08:46:40;;;;;;;0.20;0.20;;;22.80;46.20;;;;;;5129725;27;46810;-18
2021/12/30 08:49:07;;;;;;;0.65;0.20;;;22.80;46.20;;;;;;5129581;27;47099;-18
2021/12/30 08:51:36;;;;;;;0.30;0.30;;;22.80;46.20;;;;;;5129286;27;48124;-18
2021/12/30 08:54:03;;;;;;;0.20;0.20;;;22.80;46.20;;;;;;5129484;27;46871;-18
2021/12/30 08:56:31;;;;;;;0.20;0.20;;;22.80;46.20;;;;;;5129278;27;46919;-18
2021/12/30 08:58:57;;;;;;;0.20;0.20;;;22.80;46.20;;;;;;5129552;27;47003;-18
2021/12/30 09:01:24;;;;;;;0.10;0.10;;;22.80;46.30;;;;;;5129493;27;48868;-17
2021/12/30 09:03:51;;;;;;;0.10;0.10;;;22.80;46.30;;;;;;5129097;27;46959;-17
2021/12/30 09:06:17;;;;;;;0.20;0.20;;;22.80;46.30;;;;;;5128510;27;46875;-18
2021/12/30 09:08:44;;;;;;;0.30;0.30;;;22.80;46.90;;;;;;5127891;27;47027;-19
2021/12/30 09:11:11;;;;;;;0.10;0.10;;;22.80;46.20;;;;;;5129274;27;48775;-18
2021/12/30 09:13:39;;;;;;;0.10;0.10;;;22.80;46.30;;;;;;5129185;27;47004;-18
2021/12/30 09:16:07;;;;;;;0.10;0.10;;;22.80;46.30;;;;;;5128969;27;46946;-18
2021/12/30 09:18:34;;;;;;;0.10;0.10;;;22.80;46.20;;;;;;5129301;27;46987;-18
2021/12/30 09:21:01;;;;;;;0.10;0.10;;;22.80;46.20;;;;;;5129056;27;46925;-18
2021/12/30 09:23:27;;;;;;;0.15;0.10;;;22.80;46.20;;;;;;5129050;27;47293;-24
2021/12/30 09:25:56;;;;;;;0.28;0.28;;;22.80;46.30;;;;;;5129112;27;46906;-17
2021/12/30 09:28:24;;;;;;;0.10;0.10;;;22.80;46.30;;;;;;5129104;27;46978;-18
2021/12/30 09:30:52;;;;;;;0.30;0.30;;;22.90;46.30;;;;;;5128396;27;48192;-18
2021/12/30 09:33:19;;;;;;;0.20;0.20;;;22.90;46.30;;;;;;5128713;27;46967;-18
2021/12/30 09:35:47;;;;;;;0.20;0.20;;;22.90;46.40;;;;;;5128572;27;47041;-18
2021/12/30 09:38:14;;;;;;;0.10;0.10;;;22.90;46.40;;;;;;5128295;27;47286;-18
2021/12/30 09:40:41;;;;;;;0.35;0.20;;;22.90;46.40;;;;;;5127713;27;47763;-18
2021/12/30 09:43:09;;;;;;;0.20;0.20;;;22.90;46.40;;;;;;5128240;27;47389;-18
2021/12/30 09:45:37;;;;;;;0.85;0.25;;;22.90;46.40;;;;;;5127603;27;46966;-18
2021/12/30 09:48:07;;;;;;;0.10;0.10;;;22.90;46.30;;;;;;5128399;27;46961;-18
2021/12/30 09:50:36;;;;;;;0.08;0.08;;;22.90;46.40;;;;;;5127265;27;49812;-19
2021/12/30 09:53:03;;;;;;;0.20;0.20;;;22.90;46.30;;;;;;5128257;27;46911;-18
2021/12/30 09:55:30;;;;;;;0.43;0.20;;;22.90;46.40;;;;;;5128317;27;46875;-18
2021/12/30 09:57:58;;;;;;;0.10;0.10;;;22.90;46.40;;;;;;5128520;27;46846;-18
2021/12/30 10:00:25;;;;;;;0.20;0.20;;;22.90;46.40;;;;;;5127720;27;47232;-18
2021/12/30 10:02:52;;;;;;;0.10;0.10;;;22.90;46.50;;;;;;5127714;27;46907;-19
2021/12/30 10:05:21;;;;;;;0.15;0.15;;;22.90;46.40;;;;;;5127840;27;46974;-18
2021/12/30 10:07:48;;;;;;;0.10;0.10;;;22.90;46.40;;;;;;5127024;27;47118;-18
2021/12/30 10:10:31;;;;;;;0.20;0.20;;;22.90;46.40;;;;;;5127857;27;46882;-19
2021/12/30 10:12:58;;;;;;;0.03;0.03;;;22.90;46.40;;;;;;5126368;27;47029;-18
2021/12/30 10:15:27;;;;;;;0.20;0.20;;;22.90;46.50;;;;;;5126955;27;47002;-18
2021/12/30 10:17:54;;;;;;;0.20;0.20;;;22.90;46.40;;;;;;5128400;27;46815;-18
2021/12/30 10:20:25;;;;;;;0.10;0.10;;;22.90;46.40;;;;;;5127378;27;47955;-19
2021/12/30 10:22:52;;;;;;;0.17;0.17;;;22.90;46.20;;;;;;5127361;27;46911;-18
2021/12/30 10:25:27;;;;;;;0.20;0.20;;;22.90;46.40;;;;;;5126913;27;46836;-19
2021/12/30 10:27:54;;;;;;;0.20;0.20;;;22.90;46.50;;;;;;5127570;27;47111;-19
2021/12/30 10:30:30;;;;;;;0.20;0.20;;;22.90;46.50;;;;;;5126954;27;47069;-18
2021/12/30 10:33:10;;;;;;;0.00;0.00;;;22.90;46.40;;;;;;5126911;27;47177;-19
2021/12/30 10:35:38;;;;;;;0.13;0.13;;;22.90;46.40;;;;;;5127854;27;46882;-18
2021/12/30 10:38:08;;;;;;;0.00;0.00;;;22.90;46.50;;;;;;5127953;27;47219;-18
2021/12/30 10:40:35;;;;;;;0.10;0.10;;;23.00;46.50;;;;;;5127694;27;47966;-18
2021/12/30 10:43:18;;;;;;;0.20;0.15;;;23.00;46.50;;;;;;5127644;27;46813;-18
2021/12/30 10:45:46;;;;;;;0.20;0.20;;;23.00;46.50;;;;;;5127449;27;46961;-18
2021/12/30 10:48:12;;;;;;;0.10;0.10;;;22.90;46.50;;;;;;5127347;27;47187;-18
2021/12/30 10:50:40;;;;;;;0.45;0.20;;;22.90;46.50;;;;;;5126814;27;48089;-18
2021/12/30 10:53:07;;;;;;;0.20;0.20;;;22.90;46.50;;;;;;5127547;27;47149;-18
2021/12/30 10:55:34;;;;;;;0.10;0.10;;;23.00;46.50;;;;;;5127327;27;46939;-19
2021/12/30 10:58:01;;;;;;;0.10;0.10;;;23.00;46.40;;;;;;5127558;27;46914;-18
2021/12/30 11:00:29;;;;;;;0.50;0.10;;;23.00;46.40;;;;;;5127271;27;48013;-18
2021/12/30 11:02:55;;;;;;;0.85;0.32;;;23.00;46.50;;;;;;5127825;27;47321;-18
2021/12/30 11:05:22;;;;;;;0.55;0.20;;;23.00;46.50;;;;;;5127267;27;46747;-18
2021/12/30 11:07:51;;;;;;;0.17;0.17;;;23.00;46.50;;;;;;5127810;27;47118;-18
2021/12/30 11:10:28;;;;;;;0.20;0.20;;;23.00;46.50;;;;;;5127201;27;46930;-18
2021/12/30 11:12:55;;;;;;;0.43;0.22;;;23.00;46.50;;;;;;5123336;27;47481;-19
2021/12/30 11:15:23;;;;;;;0.47;0.32;;;23.00;46.50;;;;;;5125515;27;47918;-18
2021/12/30 11:17:50;;;;;;;0.22;0.22;;;23.00;46.40;;;;;;5125109;27;47136;-18
2021/12/30 11:20:18;;;;;;;4.57;0.35;;;23.00;46.50;;;;;;5125100;27;47810;-19
2021/12/30 11:22:46;;;;;;;0.08;0.08;;;23.00;46.50;;;;;;5125320;27;47262;-19
2021/12/30 11:25:16;;;;;;;1.20;0.25;;;23.00;46.50;;;;;;5125117;27;46971;-18
2021/12/30 11:27:42;;;;;;;1.13;0.20;;;23.00;46.50;;;;;;5125713;27;47244;-18
2021/12/30 11:30:10;;;;;;;1.65;0.20;;;23.00;46.50;;;;;;5125694;27;48833;-18
2021/12/30 11:32:37;;;;;;;1.20;0.30;;;23.00;46.60;;;;;;5127041;27;47429;-18
2021/12/30 11:35:05;;;;;;;0.40;0.30;;;23.00;46.50;;;;;;5126975;27;46995;-18
2021/12/30 11:37:31;;;;;;;0.70;0.22;;;23.00;46.50;;;;;;5127115;27;46837;-18
2021/12/30 11:39:59;;;;;;;1.55;0.20;;;23.10;46.60;;;;;;5126478;27;49069;-19
2021/12/30 11:42:29;;;;;;;1.10;0.30;;;23.00;46.50;;;;;;5126858;27;46801;-18
2021/12/30 11:44:56;;;;;;;0.20;0.20;;;23.00;46.60;;;;;;5126118;27;46925;-18
2021/12/30 11:47:40;;;;;;;1.50;0.30;;;23.00;46.50;;;;;;5127066;27;47249;-19
2021/12/30 11:50:13;;;;;;;0.20;0.20;;;23.10;46.60;;;;;;5126168;27;48752;-18
2021/12/30 11:52:57;;;;;;;0.43;0.30;;;23.10;46.60;;;;;;5126921;27;47491;-18
2021/12/30 11:55:48;;;;;;;0.20;0.20;;;23.10;46.60;;;;;;5126497;27;46848;-19
2021/12/30 11:58:48;;;;;;;1.73;0.35;;;23.10;46.60;;;;;;5126660;27;47212;-18
2021/12/30 12:01:35;;;;;;;0.47;0.25;;;23.10;46.60;;;;;;5131990;27;48130;-18
2021/12/30 12:04:10;;;;;;;1.50;0.30;;;23.10;46.60;;;;;;5133096;27;46968;-18
2021/12/30 12:06:39;;;;;;;0.88;0.20;;;23.10;46.70;;;;;;5133315;27;46931;-18
2021/12/30 12:09:08;;;;;;;0.88;0.40;;;23.10;46.70;;;;;;5133422;27;47260;-18
2021/12/30 12:11:44;;;;;;;0.35;0.30;;;23.10;46.70;;;;;;5133416;27;47866;-18
2021/12/30 12:14:12;;;;;;;0.40;0.30;;;23.00;46.70;;;;;;5133132;27;46978;-18
2021/12/30 12:16:55;;;;;;;0.57;0.40;;;23.10;46.70;;;;;;5133158;27;46949;-18
2021/12/30 12:19:23;;;;;;;0.55;0.40;;;23.10;46.70;;;;;;5133108;27;47034;-18
2021/12/30 12:21:51;;;;;;;0.60;0.40;;;23.10;46.70;;;;;;5132950;27;48098;-18
2021/12/30 12:24:28;;;;;;;1.13;0.45;;;23.10;46.70;;;;;;5133134;27;46867;-18
2021/12/30 12:26:55;;;;;;;1.45;0.40;;;23.10;46.70;;;;;;5132978;27;46898;-18
2021/12/30 12:29:25;;;;;;;1.05;0.40;;;23.10;46.70;;;;;;5133290;27;47105;-18
2021/12/30 12:31:59;;;;;;;2.42;0.40;;;23.10;46.60;;;;;;5133136;27;47811;-18
2021/12/30 12:34:36;;;;;;;1.10;0.40;;;23.10;46.70;;;;;;5132812;27;46826;-18
2021/12/30 12:37:03;;;;;;;1.08;0.30;;;23.10;46.70;;;;;;5132840;27;46883;-18
2021/12/30 12:39:34;;;;;;;2.67;0.73;;;23.10;46.70;;;;;;5133163;27;47200;-18
2021/12/30 12:42:01;;;;;;;0.28;0.20;;;23.20;46.70;;;;;;5132987;27;49084;-18
2021/12/30 12:44:29;;;;;;;1.30;0.55;;;23.20;46.70;;;;;;5132264;27;46808;-18
2021/12/30 12:46:59;;;;;;;1.60;0.40;;;23.20;46.60;;;;;;5133245;27;46843;-19
2021/12/30 12:49:41;;;;;;;1.45;0.70;;;23.20;46.60;;;;;;5132982;27;46818;-18
2021/12/30 12:52:08;;;;;;;0.50;0.40;;;23.20;46.70;;;;;;5132087;27;47070;-18